Sousse, Tunisia
Current Conditions -  °F | °C
As of 7:00 PM on Monday 20 Oct 2014 (Local Time) from DTMB Reporting Station
Few Clouds Few Clouds  
Wind Chill: 73°   Ceiling: Unl
Heat Index: 73°   Visibility: 6mi
Dew Point: 64°   Wind: 3mph
Humidity: 73%   Direction: 50°NE
Pressure: 30.12"   Gusts: NA
Location:  35.82°N, 10.63°E
Report Text: DTMB 201800Z 05003KT 9999 FEW020 23/18 Q1020 NOSIG
Loading
Personal Weather Stations






























Interactive Weather Map New forecast layout! Learn more

10-Day Weather Forecast

Advertisements
Track Severe Weather on mobile